TFM - Tactical Decision Aid (Experimental) INFO Settings

ID: Runway Winds: CIG/VIS Threshold: METAR Board: Map:

Kclt - Charlotte-Douglas Intl

Updated at: 0432 UTC 28 Mar 2015
Latest TAF at: 2320 UTC 27 Mar 2015

TAF Board

Time0352Z28/05Z28/06Z28/07Z28/08Z28/09Z28/10Z28/11Z28/12Z28/13Z28/14Z28/15Z28/16Z28/17Z
TypeOBSPRVLPRVLPRVLPRVLPRVLPRVLPRVLPRVLPRVLPRVLPRVLPRVLPRVL
VIS10>6>6>6>6>6>6>6>6>6>6>6>6>6
CIG905050505050----------------
CoverOVCOVCOVCOVCOVCOVCSCTSCTSCTSCTSCTSCTSCTSCT
FltCatVFRVFRVFRVFRVFRVFRVFRVFRVFRVFRVFRVFRVFRVFR
WX----------------------------
WDir340350350350350350330330330330330330330330
WSpd44444466666666
WGst----------------------------
TAF
KCLT 272320Z 2800/2824 35004KT P6SM OVC050
  TEMPO 2800/2802 -SHRA
  FM281000 33006KT P6SM SCT220
  FM281800 31007G14KT P6SM SCT240


METAR
KCLT 280352Z 34004KT 10SM OVC090 07/00 A2987 RMK AO2 SLP113 T00670000

TAF/METAR Board Legend

Potential Impact
  None Marginal Slight Moderate High
Visibility (sm) > ≤X≤ <
Ceiling (100 ft) > ≤X≤ <
Wind Speed (kt) <10 10≤X<20 20≤X<30 ≥30
Wind Gust (kt) <15 15≤X<25 25≤X<35 ≥35
Weather No Wx Reported VCTS -TS,-FZRA TS,FZRA +TS,+FZRA